Time;durP1;ratioP1;P1;durP2;ratioP2;P2;SDS_P1;SDS_P2;PMS_P1;PMS_P2;Temp;Humidity;BMP_temperature;BMP_pressure;BME280_temperature;BME280_humidity;BME280_pressure;Samples;Min_cycle;Max_cycle;Signal;HPM_P1;HPM_P2
2023/09/20 00:01:33;;;;;;;0.10;0.10;;;18.60;99.90;;;;;;7396641;19;20146;-83
2023/09/20 00:04:05;;;;;;;0.10;0.10;;;18.70;99.90;;;;;;7393460;19;20137;-83
2023/09/20 00:06:36;;;;;;;0.20;0.20;;;18.50;99.90;;;;;;7396833;19;20154;-83
2023/09/20 00:09:02;;;;;;;0.25;0.20;;;18.20;99.90;;;;;;7395486;19;20131;-83
2023/09/20 00:11:28;;;;;;;0.10;0.10;;;18.10;99.90;;;;;;7396238;19;20607;-84
2023/09/20 00:13:59;;;;;;;0.10;0.10;;;18.00;99.90;;;;;;7396227;19;20134;-84
2023/09/20 00:16:25;;;;;;;0.10;0.10;;;17.90;99.90;;;;;;7396201;19;20567;-84
2023/09/20 00:18:51;;;;;;;0.10;0.10;;;17.90;99.90;;;;;;7396376;19;20143;-83
2023/09/20 00:21:17;;;;;;;0.10;0.10;;;17.90;99.90;;;;;;7395202;19;20473;-84
2023/09/20 00:23:43;;;;;;;0.10;0.10;;;17.60;99.90;;;;;;7394521;19;20587;-83
2023/09/20 00:26:10;;;;;;;0.10;0.10;;;17.70;99.90;;;;;;7396531;19;20142;-83
2023/09/20 00:28:38;;;;;;;0.08;0.08;;;17.90;99.90;;;;;;7393121;19;20146;-83
2023/09/20 00:31:05;;;;;;;0.10;0.10;;;17.60;99.90;;;;;;7395015;19;20131;-84
2023/09/20 00:33:30;;;;;;;0.20;0.20;;;17.80;99.90;;;;;;7393555;19;20143;-83
2023/09/20 00:35:56;;;;;;;1.70;1.58;;;18.20;99.90;;;;;;7395639;19;20161;-83
2023/09/20 00:38:24;;;;;;;0.40;0.40;;;18.20;99.90;;;;;;7395771;19;20135;-84
2023/09/20 00:40:50;;;;;;;0.10;0.10;;;18.00;99.90;;;;;;7395414;19;20142;-84
2023/09/20 00:43:23;;;;;;;0.20;0.20;;;18.00;99.90;;;;;;7394883;19;20598;-82
2023/09/20 00:45:49;;;;;;;0.20;0.20;;;17.60;99.90;;;;;;7393746;19;20166;-83
2023/09/20 00:48:17;;;;;;;0.10;0.10;;;17.50;99.90;;;;;;7395805;19;20567;-83
2023/09/20 00:50:43;;;;;;;0.20;0.20;;;17.40;99.90;;;;;;7393682;19;20147;-83
2023/09/20 00:53:13;;;;;;;0.10;0.10;;;17.50;99.90;;;;;;7393687;19;20142;-85
2023/09/20 00:55:42;;;;;;;0.10;0.10;;;17.70;99.90;;;;;;7393894;19;20165;-83
2023/09/20 00:58:17;;;;;;;0.10;0.10;;;17.90;99.90;;;;;;7393581;19;20153;-83
2023/09/20 01:00:46;;;;;;;0.17;0.17;;;17.90;99.90;;;;;;7396241;19;20677;-83
2023/09/20 01:03:17;;;;;;;0.10;0.10;;;17.80;99.90;;;;;;7394132;19;20586;-84
2023/09/20 01:05:46;;;;;;;0.10;0.10;;;17.50;99.90;;;;;;7393821;19;20214;-84
2023/09/20 01:08:12;;;;;;;0.10;0.10;;;17.20;99.90;;;;;;7393897;19;20150;-83
2023/09/20 01:10:38;;;;;;;0.30;0.30;;;17.20;99.90;;;;;;7393724;19;20162;-84
2023/09/20 01:13:06;;;;;;;0.10;0.10;;;17.20;99.90;;;;;;7393790;19;20150;-84
2023/09/20 01:15:34;;;;;;;0.10;0.10;;;17.10;99.90;;;;;;7392557;19;20146;-84
2023/09/20 01:18:01;;;;;;;0.10;0.10;;;17.20;99.90;;;;;;7394347;19;20149;-84
2023/09/20 01:20:32;;;;;;;0.20;0.20;;;17.10;99.90;;;;;;7393976;19;20147;-84
2023/09/20 01:22:59;;;;;;;0.17;0.17;;;16.90;99.90;;;;;;7392519;19;20139;-82
2023/09/20 01:25:27;;;;;;;0.10;0.10;;;16.80;99.90;;;;;;7396700;19;20225;-84
2023/09/20 01:27:57;;;;;;;0.10;0.10;;;17.00;99.90;;;;;;7393616;19;20137;-84
2023/09/20 01:30:29;;;;;;;0.10;0.10;;;17.20;99.90;;;;;;7394205;19;20150;-85
2023/09/20 01:32:57;;;;;;;0.10;0.10;;;17.40;99.90;;;;;;7395171;19;20139;-84
2023/09/20 01:35:25;;;;;;;0.10;0.10;;;17.30;99.90;;;;;;7394382;19;20153;-84
2023/09/20 01:37:51;;;;;;;0.00;0.00;;;17.20;99.90;;;;;;7393569;19;20161;-82
2023/09/20 01:40:25;;;;;;;0.10;0.10;;;17.20;99.90;;;;;;7394935;19;20150;-83
2023/09/20 01:42:52;;;;;;;0.10;0.10;;;17.10;99.90;;;;;;7392765;19;20168;-84
2023/09/20 01:45:19;;;;;;;0.10;0.10;;;17.10;99.90;;;;;;7393193;19;20487;-84
2023/09/20 01:47:52;;;;;;;0.10;0.10;;;17.30;99.90;;;;;;7392605;19;20146;-83
2023/09/20 01:50:25;;;;;;;0.20;0.20;;;17.20;99.90;;;;;;7394739;19;20142;-84
2023/09/20 01:52:52;;;;;;;0.10;0.10;;;17.30;99.90;;;;;;7392135;19;20270;-83
2023/09/20 01:55:23;;;;;;;0.32;0.32;;;17.40;99.90;;;;;;7391501;19;20142;-84
2023/09/20 01:57:54;;;;;;;0.10;0.10;;;17.50;99.90;;;;;;7392933;19;20582;-82
2023/09/20 02:00:22;;;;;;;0.10;0.10;;;17.60;99.90;;;;;;7392322;19;20139;-83
2023/09/20 02:03:00;;;;;;;0.03;0.03;;;17.80;99.90;;;;;;7392152;19;20138;-84
2023/09/20 02:05:27;;;;;;;1.02;0.95;;;17.60;99.90;;;;;;7390776;19;20285;-83
2023/09/20 02:07:57;;;;;;;0.10;0.10;;;17.70;99.90;;;;;;7393105;19;20167;-84
2023/09/20 02:10:23;;;;;;;0.10;0.10;;;17.60;99.90;;;;;;7394696;19;20138;-83
2023/09/20 02:12:51;;;;;;;0.10;0.10;;;17.40;99.90;;;;;;7393236;19;20450;-84
2023/09/20 02:15:18;;;;;;;0.20;0.20;;;17.60;99.90;;;;;;7393699;19;20166;-82
2023/09/20 02:17:45;;;;;;;0.75;0.75;;;17.80;99.90;;;;;;7393598;19;20230;-84
2023/09/20 02:20:19;;;;;;;0.20;0.20;;;17.90;99.90;;;;;;7393031;19;20155;-82
2023/09/20 02:22:53;;;;;;;0.20;0.20;;;17.90;99.90;;;;;;7390614;19;20130;-83
2023/09/20 02:25:22;;;;;;;0.15;0.15;;;17.90;99.90;;;;;;7394082;19;20130;-84
2023/09/20 02:27:51;;;;;;;0.20;0.20;;;17.90;99.90;;;;;;7390764;19;20150;-83
2023/09/20 02:30:19;;;;;;;0.20;0.20;;;17.90;99.90;;;;;;7392213;19;20590;-83
2023/09/20 02:32:50;;;;;;;0.10;0.10;;;17.90;99.90;;;;;;7390532;19;20221;-84
2023/09/20 02:35:16;;;;;;;0.10;0.10;;;17.70;99.90;;;;;;7392342;19;20146;-84
2023/09/20 02:37:43;;;;;;;0.10;0.10;;;17.50;99.90;;;;;;7390382;19;20131;-83
2023/09/20 02:40:18;;;;;;;0.20;0.20;;;17.60;99.90;;;;;;7392713;19;20614;-83
2023/09/20 02:42:46;;;;;;;0.15;0.15;;;17.50;99.90;;;;;;7390993;19;20133;-82
2023/09/20 02:45:22;;;;;;;0.10;0.10;;;17.70;99.90;;;;;;7388871;19;20138;-83
2023/09/20 02:47:49;;;;;;;0.10;0.10;;;17.60;99.90;;;;;;7391640;19;20146;-82
2023/09/20 02:50:18;;;;;;;0.20;0.20;;;17.50;99.90;;;;;;7392621;19;20143;-84
2023/09/20 02:52:47;;;;;;;0.20;0.20;;;17.50;99.90;;;;;;7392907;19;20227;-84
2023/09/20 02:55:15;;;;;;;0.17;0.17;;;17.50;99.90;;;;;;7391937;19;20135;-85
2023/09/20 02:57:42;;;;;;;0.10;0.10;;;17.70;99.90;;;;;;7393559;19;20130;-83
2023/09/20 03:00:16;;;;;;;0.03;0.03;;;17.60;99.90;;;;;;7391963;19;20222;-83
2023/09/20 03:02:44;;;;;;;0.10;0.10;;;17.70;99.90;;;;;;7391908;19;20152;-82
2023/09/20 03:05:11;;;;;;;0.20;0.20;;;17.70;99.90;;;;;;7389994;19;20147;-83
2023/09/20 03:07:37;;;;;;;0.20;0.20;;;17.60;99.90;;;;;;7390786;19;20142;-83
2023/09/20 03:10:05;;;;;;;0.20;0.20;;;17.60;99.90;;;;;;7391723;19;20139;-83
2023/09/20 03:12:33;;;;;;;0.10;0.10;;;17.60;99.90;;;;;;7392149;19;20134;-84
2023/09/20 03:15:04;;;;;;;0.57;0.20;;;17.50;99.90;;;;;;7391943;19;20149;-84
2023/09/20 03:17:31;;;;;;;0.10;0.10;;;17.60;99.90;;;;;;7392102;19;20171;-85
2023/09/20 03:19:57;;;;;;;0.10;0.10;;;17.60;99.90;;;;;;7392806;19;20154;-84
2023/09/20 03:22:22;;;;;;;0.00;0.00;;;17.70;99.90;;;;;;7390862;19;20138;-83
2023/09/20 03:24:48;;;;;;;0.17;0.17;;;17.70;99.90;;;;;;7392085;19;20143;-85
2023/09/20 03:27:16;;;;;;;0.10;0.10;;;17.70;99.90;;;;;;7393469;19;20130;-83
2023/09/20 03:29:46;;;;;;;0.17;0.17;;;17.60;99.90;;;;;;7397436;19;20133;-85
2023/09/20 03:32:15;;;;;;;0.08;0.08;;;17.40;99.90;;;;;;7398410;19;20161;-84
2023/09/20 03:34:41;;;;;;;0.17;0.17;;;17.40;99.90;;;;;;7396758;19;20134;-84
2023/09/20 03:37:09;;;;;;;0.20;0.20;;;17.50;99.90;;;;;;7397020;19;20138;-84
2023/09/20 03:39:39;;;;;;;0.20;0.20;;;17.70;99.90;;;;;;7398551;19;20504;-84
2023/09/20 03:42:07;;;;;;;0.10;0.10;;;17.60;99.90;;;;;;7397104;19;20156;-81
2023/09/20 03:44:33;;;;;;;0.10;0.10;;;17.50;99.90;;;;;;7397017;19;20135;-83
2023/09/20 03:46:59;;;;;;;0.10;0.10;;;17.50;99.90;;;;;;7397433;19;20127;-83
2023/09/20 03:49:25;;;;;;;0.20;0.20;;;17.50;99.90;;;;;;7397164;19;20476;-84
2023/09/20 03:51:50;;;;;;;0.03;0.03;;;17.40;99.90;;;;;;7396865;19;20142;-83
2023/09/20 03:54:16;;;;;;;0.10;0.10;;;17.20;99.90;;;;;;7396761;19;20130;-83
2023/09/20 03:56:43;;;;;;;0.10;0.10;;;17.50;99.90;;;;;;7396269;19;20149;-82
2023/09/20 03:59:12;;;;;;;0.25;0.25;;;17.30;99.90;;;;;;7396431;19;20173;-84
2023/09/20 04:01:38;;;;;;;0.10;0.10;;;17.30;99.90;;;;;;7396027;19;20149;-83
2023/09/20 04:04:05;;;;;;;0.10;0.10;;;16.80;99.90;;;;;;7394817;19;20190;-84
2023/09/20 04:06:34;;;;;;;0.20;0.20;;;16.60;99.90;;;;;;7396911;19;20484;-84
2023/09/20 04:09:09;;;;;;;0.10;0.10;;;16.70;99.90;;;;;;7396025;19;20126;-83
2023/09/20 04:11:42;;;;;;;0.10;0.10;;;16.60;99.90;;;;;;7395845;19;20134;-84
2023/09/20 04:14:08;;;;;;;0.10;0.10;;;16.70;99.90;;;;;;7394671;19;20158;-84
2023/09/20 04:16:39;;;;;;;0.10;0.10;;;17.00;99.90;;;;;;7397635;19;20131;-85
2023/09/20 04:19:06;;;;;;;0.10;0.10;;;17.20;99.90;;;;;;7395050;19;20148;-82
2023/09/20 04:21:32;;;;;;;0.32;0.28;;;17.10;99.90;;;;;;7396547;19;20141;-83
2023/09/20 04:23:59;;;;;;;0.13;0.13;;;17.30;99.90;;;;;;7391973;19;20509;-82
2023/09/20 04:26:25;;;;;;;0.10;0.10;;;17.30;99.90;;;;;;7393817;19;20833;-84
2023/09/20 04:28:51;;;;;;;0.00;0.00;;;17.50;99.90;;;;;;7395811;19;20164;-83
2023/09/20 04:31:17;;;;;;;0.10;0.10;;;17.30;99.90;;;;;;7396748;19;20131;-84
2023/09/20 04:33:43;;;;;;;0.10;0.10;;;17.00;99.90;;;;;;7397604;19;20172;-85
2023/09/20 04:36:08;;;;;;;0.15;0.15;;;17.00;99.90;;;;;;7399577;19;20618;-88
2023/09/20 04:38:34;;;;;;;0.15;0.15;;;16.90;99.90;;;;;;7395728;19;20516;-88
2023/09/20 04:41:00;;;;;;;0.10;0.10;;;16.90;99.90;;;;;;7397717;19;20127;-87
2023/09/20 04:43:26;;;;;;;0.10;0.10;;;16.60;99.90;;;;;;7395288;19;20150;-84
2023/09/20 04:45:54;;;;;;;0.70;0.63;;;16.60;99.90;;;;;;7396009;19;20138;-85
2023/09/20 04:48:19;;;;;;;0.15;0.15;;;16.40;99.90;;;;;;7394784;19;20165;-83
2023/09/20 04:50:48;;;;;;;0.43;0.40;;;16.60;99.90;;;;;;7395359;19;20532;-84
2023/09/20 04:53:16;;;;;;;0.15;0.15;;;16.70;99.90;;;;;;7396776;19;20156;-83
2023/09/20 04:55:42;;;;;;;0.10;0.10;;;16.40;99.90;;;;;;7396286;19;20194;-83
2023/09/20 04:58:08;;;;;;;0.10;0.10;;;16.70;99.90;;;;;;7397376;19;20167;-86
2023/09/20 05:00:37;;;;;;;0.10;0.10;;;16.60;99.90;;;;;;7394216;19;20205;-84
2023/09/20 05:03:03;;;;;;;0.38;0.38;;;16.80;99.90;;;;;;7394497;19;20476;-85
2023/09/20 05:05:29;;;;;;;0.00;0.00;;;16.70;99.90;;;;;;7393555;19;20191;-83
2023/09/20 05:07:56;;;;;;;0.10;0.10;;;16.70;99.90;;;;;;7394969;19;20158;-85
2023/09/20 05:10:22;;;;;;;0.10;0.10;;;16.50;99.90;;;;;;7394136;19;20134;-84
2023/09/20 05:12:48;;;;;;;0.10;0.10;;;16.40;99.90;;;;;;7393199;19;20146;-84
2023/09/20 05:15:15;;;;;;;0.10;0.10;;;16.70;99.90;;;;;;7391939;19;20381;-84
2023/09/20 05:17:45;;;;;;;0.10;0.10;;;16.70;99.90;;;;;;7396556;19;20131;-83
2023/09/20 05:20:14;;;;;;;0.10;0.10;;;16.70;99.90;;;;;;7392654;19;20155;-84
2023/09/20 05:22:40;;;;;;;0.10;0.10;;;16.70;99.90;;;;;;7393150;19;20622;-83
2023/09/20 05:25:08;;;;;;;0.10;0.10;;;16.70;99.90;;;;;;7396019;19;20165;-83
2023/09/20 05:27:34;;;;;;;0.10;0.10;;;16.90;99.90;;;;;;7395405;19;20218;-83
2023/09/20 05:30:00;;;;;;;0.10;0.10;;;17.20;99.90;;;;;;7393965;19;20135;-83
2023/09/20 05:32:26;;;;;;;0.10;0.10;;;17.10;99.90;;;;;;7394311;19;20160;-83
2023/09/20 05:34:53;;;;;;;0.10;0.10;;;17.10;99.90;;;;;;7394465;19;20146;-83
2023/09/20 05:37:19;;;;;;;0.28;0.28;;;17.10;99.90;;;;;;7394210;19;20134;-83
2023/09/20 05:39:48;;;;;;;0.10;0.10;;;17.00;99.90;;;;;;7395046;19;20178;-83
2023/09/20 05:42:15;;;;;;;0.30;0.30;;;17.10;99.90;;;;;;7395839;19;20147;-82
2023/09/20 05:44:41;;;;;;;0.20;0.20;;;17.30;99.90;;;;;;7392979;19;20118;-83
2023/09/20 05:47:09;;;;;;;0.10;0.10;;;17.30;99.90;;;;;;7393041;19;20586;-82
2023/09/20 05:49:35;;;;;;;0.10;0.10;;;17.10;99.90;;;;;;7392800;19;20133;-82
2023/09/20 05:52:05;;;;;;;0.20;0.20;;;17.20;99.90;;;;;;7392929;19;20170;-80
2023/09/20 05:54:42;;;;;;;0.20;0.20;;;17.10;99.90;;;;;;7393129;19;20136;-83
2023/09/20 05:57:07;;;;;;;0.10;0.10;;;17.10;99.90;;;;;;7393238;19;20141;-82
2023/09/20 05:59:33;;;;;;;0.22;0.22;;;16.90;99.90;;;;;;7392434;19;20146;-82
2023/09/20 06:01:59;;;;;;;0.35;0.30;;;17.40;99.90;;;;;;7393376;19;20591;-82
2023/09/20 06:04:25;;;;;;;0.10;0.10;;;17.60;99.90;;;;;;7390912;19;20174;-82
2023/09/20 06:06:54;;;;;;;0.10;0.10;;;17.80;99.90;;;;;;7396606;19;20522;-83
2023/09/20 06:09:19;;;;;;;0.20;0.20;;;18.10;99.90;;;;;;7395416;19;20138;-81
2023/09/20 06:11:45;;;;;;;0.10;0.10;;;18.10;99.90;;;;;;7394751;19;20153;-82
2023/09/20 06:14:11;;;;;;;0.20;0.20;;;18.10;99.90;;;;;;7395112;19;20150;-81
2023/09/20 06:16:37;;;;;;;0.13;0.13;;;18.10;99.90;;;;;;7397058;19;20144;-81
2023/09/20 06:19:03;;;;;;;0.80;0.65;;;18.20;99.90;;;;;;7396189;19;20134;-81
2023/09/20 06:21:38;;;;;;;0.28;0.28;;;18.00;99.90;;;;;;7399101;19;20143;-83
2023/09/20 06:24:11;;;;;;;0.20;0.20;;;18.10;99.90;;;;;;7394769;19;20130;-82
2023/09/20 06:26:40;;;;;;;0.10;0.10;;;18.20;99.90;;;;;;7396633;19;20621;-83
2023/09/20 06:29:09;;;;;;;0.20;0.20;;;18.20;99.90;;;;;;7396413;19;20155;-83
2023/09/20 06:31:37;;;;;;;0.10;0.10;;;18.20;99.90;;;;;;7397433;19;20126;-84
2023/09/20 06:34:04;;;;;;;0.10;0.10;;;18.20;99.90;;;;;;7393657;19;20485;-82
2023/09/20 06:36:29;;;;;;;0.10;0.10;;;18.20;99.90;;;;;;7393011;19;20153;-82
2023/09/20 06:38:57;;;;;;;0.10;0.10;;;18.20;99.90;;;;;;7390965;19;20587;-83
2023/09/20 06:41:23;;;;;;;0.20;0.20;;;18.30;99.90;;;;;;7392573;19;20213;-84
2023/09/20 06:43:49;;;;;;;0.10;0.10;;;18.40;99.90;;;;;;7392861;19;20135;-83
2023/09/20 06:46:15;;;;;;;0.10;0.10;;;18.40;99.90;;;;;;7393804;19;20153;-83
2023/09/20 06:48:41;;;;;;;0.10;0.10;;;18.40;99.90;;;;;;7392006;19;20146;-82
2023/09/20 06:51:08;;;;;;;0.10;0.10;;;18.30;99.90;;;;;;7394255;19;20146;-85
2023/09/20 06:53:35;;;;;;;0.10;0.10;;;18.60;99.90;;;;;;7393915;19;20856;-83
2023/09/20 06:56:02;;;;;;;0.28;0.20;;;18.80;99.90;;;;;;7392117;19;20149;-83
2023/09/20 06:58:28;;;;;;;0.20;0.20;;;18.70;99.90;;;;;;7393330;19;20622;-83
2023/09/20 07:00:54;;;;;;;0.17;0.17;;;18.80;99.90;;;;;;7394004;19;20130;-87
2023/09/20 07:03:20;;;;;;;0.20;0.20;;;18.80;99.90;;;;;;7390621;19;20147;-83
2023/09/20 07:05:46;;;;;;;0.35;0.35;;;18.80;99.90;;;;;;7389798;19;20146;-85
2023/09/20 07:08:14;;;;;;;0.20;0.20;;;18.80;99.90;;;;;;7391582;19;20131;-83
2023/09/20 07:10:41;;;;;;;0.22;0.22;;;18.80;99.90;;;;;;7392173;19;20218;-83
2023/09/20 07:13:09;;;;;;;0.20;0.20;;;18.80;99.90;;;;;;7392831;19;20150;-83
2023/09/20 07:15:35;;;;;;;0.30;0.20;;;18.90;99.90;;;;;;7389197;19;20148;-82
2023/09/20 07:18:11;;;;;;;0.22;0.22;;;18.90;99.90;;;;;;7391056;19;20155;-85
2023/09/20 07:20:40;;;;;;;0.28;0.28;;;18.90;99.90;;;;;;7393528;19;20484;-84
2023/09/20 07:23:11;;;;;;;0.20;0.20;;;19.00;99.90;;;;;;7390505;19;20142;-83
2023/09/20 07:25:38;;;;;;;0.10;0.10;;;18.90;99.90;;;;;;7393668;19;20202;-84
2023/09/20 07:28:06;;;;;;;0.13;0.13;;;19.00;99.90;;;;;;7392702;19;20139;-85
2023/09/20 07:30:36;;;;;;;0.20;0.20;;;19.20;99.90;;;;;;7391722;19;20492;-85
2023/09/20 07:33:03;;;;;;;0.10;0.10;;;19.50;99.90;;;;;;7390158;19;20155;-84
2023/09/20 07:35:37;;;;;;;0.10;0.10;;;19.50;99.90;;;;;;7391296;19;20602;-82
2023/09/20 07:38:12;;;;;;;0.17;0.17;;;19.50;99.90;;;;;;7389789;19;20536;-81
2023/09/20 07:40:40;;;;;;;0.17;0.17;;;19.40;99.90;;;;;;7394212;19;20136;-83
2023/09/20 07:43:07;;;;;;;0.10;0.10;;;19.60;99.90;;;;;;7390793;19;20143;-85
2023/09/20 07:45:38;;;;;;;0.20;0.20;;;19.60;99.90;;;;;;7388895;19;20143;-81
2023/09/20 07:48:12;;;;;;;0.30;0.30;;;19.70;99.90;;;;;;7391967;19;20164;-84
2023/09/20 07:50:49;;;;;;;0.10;0.10;;;19.80;99.90;;;;;;7390007;19;20166;-83
2023/09/20 07:53:17;;;;;;;0.10;0.10;;;20.00;99.90;;;;;;7392494;19;20126;-84
2023/09/20 07:55:44;;;;;;;0.30;0.30;;;20.10;99.90;;;;;;7391301;19;20144;-84
2023/09/20 07:58:11;;;;;;;0.30;0.30;;;20.20;99.90;;;;;;7392817;19;20142;-85
2023/09/20 08:00:41;;;;;;;0.30;0.30;;;20.30;99.90;;;;;;7391841;19;20650;-85
2023/09/20 08:03:09;;;;;;;0.10;0.10;;;20.30;99.90;;;;;;7393591;19;20169;-87
2023/09/20 08:05:35;;;;;;;0.10;0.10;;;20.30;99.90;;;;;;7390552;19;20169;-85
2023/09/20 08:08:01;;;;;;;0.10;0.10;;;20.30;99.90;;;;;;7390336;19;20135;-86
2023/09/20 08:10:27;;;;;;;0.15;0.15;;;20.30;99.90;;;;;;7391531;19;20142;-85
2023/09/20 08:12:53;;;;;;;0.10;0.10;;;20.30;99.90;;;;;;7390661;19;21512;-83
2023/09/20 08:15:20;;;;;;;0.20;0.20;;;20.40;99.90;;;;;;7397067;19;20226;-85
2023/09/20 08:20:34;;;;;;;0.20;0.20;;;20.60;99.90;;;;;;7398937;19;20190;-84
2023/09/20 09:01:48;;;;;;;0.10;0.10;;;21.60;99.90;;;;;;7397251;19;20139;-86
2023/09/20 09:04:18;;;;;;;0.10;0.10;;;21.60;99.90;;;;;;7393577;19;20160;-85
2023/09/20 09:06:45;;;;;;;0.10;0.10;;;21.80;99.90;;;;;;7396857;19;20163;-84
2023/09/20 09:09:11;;;;;;;0.10;0.10;;;21.70;99.90;;;;;;7396718;19;20159;-85
2023/09/20 09:11:37;;;;;;;0.20;0.20;;;21.80;99.90;;;;;;7397095;19;20146;-83
2023/09/20 09:14:03;;;;;;;0.10;0.10;;;21.80;99.90;;;;;;7397134;19;20138;-87
2023/09/20 09:16:35;;;;;;;0.25;0.25;;;21.90;99.90;;;;;;7397474;19;20162;-86
2023/09/20 09:19:01;;;;;;;0.15;0.15;;;22.10;99.90;;;;;;7395792;19;20135;-89
2023/09/20 09:21:27;;;;;;;0.10;0.10;;;22.40;99.90;;;;;;7396360;19;20151;-82
2023/09/20 09:23:54;;;;;;;0.20;0.20;;;22.60;99.90;;;;;;7393127;19;20134;-82
2023/09/20 09:26:20;;;;;;;0.20;0.20;;;22.80;99.90;;;;;;7391889;19;20210;-83
2023/09/20 09:28:47;;;;;;;0.10;0.10;;;23.00;99.90;;;;;;7394916;19;20581;-83
2023/09/20 09:31:14;;;;;;;0.20;0.20;;;23.20;99.90;;;;;;7393404;19;20481;-81
2023/09/20 09:33:40;;;;;;;0.10;0.10;;;23.40;99.90;;;;;;7393113;19;20245;-83
2023/09/20 09:36:07;;;;;;;0.10;0.10;;;23.40;99.90;;;;;;7393245;19;20131;-84
2023/09/20 09:38:35;;;;;;;0.73;0.17;;;23.50;99.90;;;;;;7395396;19;20135;-85
2023/09/20 09:41:02;;;;;;;0.10;0.10;;;23.60;99.90;;;;;;7394727;19;20131;-84
2023/09/20 09:43:30;;;;;;;0.10;0.10;;;23.60;99.90;;;;;;7400325;19;20159;-86
2023/09/20 09:46:05;;;;;;;0.32;0.32;;;23.70;99.90;;;;;;7396913;19;20146;-86
2023/09/20 09:48:36;;;;;;;0.30;0.30;;;23.60;99.90;;;;;;7395182;19;20207;-85
2023/09/20 09:51:04;;;;;;;0.30;0.30;;;23.70;99.90;;;;;;7397281;19;20131;-86
2023/09/20 09:53:30;;;;;;;0.15;0.15;;;23.60;99.90;;;;;;7399489;19;20379;-91
2023/09/20 09:55:56;;;;;;;0.13;0.13;;;23.80;99.90;;;;;;7401038;19;20165;-92
2023/09/20 09:58:22;;;;;;;0.10;0.10;;;23.80;99.90;;;;;;7398198;19;20126;-90
2023/09/20 10:00:52;;;;;;;0.38;0.38;;;23.80;99.90;;;;;;7399143;19;20892;-90
2023/09/20 10:03:29;;;;;;;0.40;0.30;;;23.80;99.90;;;;;;7394235;19;20386;-85
2023/09/20 10:06:14;;;;;;;0.10;0.10;;;23.80;99.90;;;;;;7393083;19;20528;-87
2023/09/20 10:08:41;;;;;;;0.10;0.10;;;23.90;99.90;;;;;;7398147;19;20199;-84
2023/09/20 10:11:09;;;;;;;0.50;0.50;;;24.00;99.90;;;;;;7395405;19;20453;-86
2023/09/20 10:13:37;;;;;;;0.10;0.10;;;24.10;99.90;;;;;;7395375;19;20150;-83
2023/09/20 10:16:10;;;;;;;0.20;0.20;;;24.10;99.90;;;;;;7393916;19;20152;-83
2023/09/20 10:18:51;;;;;;;0.88;0.40;;;24.20;99.90;;;;;;7394387;19;20147;-83
2023/09/20 10:21:22;;;;;;;0.30;0.30;;;24.20;99.90;;;;;;7393083;19;20138;-86
2023/09/20 10:23:48;;;;;;;0.10;0.10;;;24.40;99.90;;;;;;7396257;19;20135;-91
2023/09/20 10:26:18;;;;;;;0.10;0.10;;;24.40;99.90;;;;;;7398044;19;20243;-87
2023/09/20 10:28:45;;;;;;;0.15;0.15;;;24.30;99.90;;;;;;7393052;19;20190;-85
2023/09/20 10:31:17;;;;;;;0.28;0.28;;;24.10;99.90;;;;;;7396260;19;20551;-86
2023/09/20 10:33:47;;;;;;;0.30;0.30;;;24.20;99.90;;;;;;7392197;19;20126;-87
2023/09/20 10:36:20;;;;;;;0.30;0.30;;;24.40;99.90;;;;;;7391136;19;20165;-82
2023/09/20 10:38:47;;;;;;;0.35;0.35;;;24.40;99.90;;;;;;7393637;19;20169;-86
2023/09/20 10:41:14;;;;;;;0.30;0.30;;;24.40;99.90;;;;;;7393242;19;20134;-87
2023/09/20 10:43:43;;;;;;;0.13;0.13;;;24.50;99.90;;;;;;7391959;19;20138;-87
2023/09/20 10:46:14;;;;;;;0.30;0.30;;;24.50;99.90;;;;;;7395667;19;20793;-88
2023/09/20 10:48:50;;;;;;;0.28;0.28;;;24.60;99.90;;;;;;7394822;19;20205;-86
2023/09/20 10:51:38;;;;;;;0.10;0.10;;;24.60;99.90;;;;;;7395189;19;20595;-87
2023/09/20 10:54:18;;;;;;;0.50;0.50;;;24.60;99.30;;;;;;7392331;19;20123;-85
2023/09/20 10:56:53;;;;;;;0.10;0.10;;;24.70;99.60;;;;;;7393360;19;20134;-87
2023/09/20 10:59:25;;;;;;;0.22;0.22;;;24.80;99.80;;;;;;7394102;19;20193;-86
2023/09/20 11:02:08;;;;;;;0.43;0.43;;;24.70;99.40;;;;;;7392120;19;20151;-86
2023/09/20 11:04:38;;;;;;;0.28;0.28;;;24.80;99.40;;;;;;7389815;19;20169;-85
2023/09/20 11:07:06;;;;;;;0.10;0.10;;;24.70;98.60;;;;;;7391142;19;20138;-88
2023/09/20 11:09:38;;;;;;;0.63;0.25;;;24.70;98.60;;;;;;7402071;19;20160;-87
2023/09/20 11:12:09;;;;;;;0.15;0.15;;;24.90;98.00;;;;;;7394122;19;20136;-84
2023/09/20 11:14:40;;;;;;;0.10;0.10;;;25.00;97.20;;;;;;7390939;19;20142;-81
2023/09/20 11:17:07;;;;;;;0.32;0.30;;;24.90;96.90;;;;;;7391414;19;20162;-84
2023/09/20 11:19:34;;;;;;;0.20;0.20;;;25.00;96.70;;;;;;7392309;19;20150;-85
2023/09/20 11:22:00;;;;;;;0.30;0.30;;;25.10;95.60;;;;;;7391630;19;20169;-85
2023/09/20 11:24:28;;;;;;;0.10;0.10;;;25.20;95.40;;;;;;7391342;19;20142;-84
2023/09/20 11:26:56;;;;;;;0.20;0.20;;;25.00;96.20;;;;;;7392796;19;20604;-86
2023/09/20 11:29:25;;;;;;;0.20;0.20;;;25.00;97.20;;;;;;7391914;19;20138;-82
2023/09/20 11:31:55;;;;;;;0.10;0.10;;;25.10;97.30;;;;;;7392147;19;20602;-84
2023/09/20 11:34:21;;;;;;;0.10;0.10;;;25.20;97.20;;;;;;7392862;19;20152;-85
2023/09/20 11:36:53;;;;;;;0.52;0.20;;;25.20;97.20;;;;;;7391551;19;20143;-88
2023/09/20 11:39:27;;;;;;;0.13;0.13;;;25.10;97.60;;;;;;7391921;19;20194;-88
2023/09/20 11:42:01;;;;;;;0.10;0.10;;;25.10;97.20;;;;;;7392134;19;20142;-87
2023/09/20 11:44:28;;;;;;;0.20;0.20;;;25.10;97.80;;;;;;7389514;19;20149;-89
2023/09/20 11:46:57;;;;;;;0.22;0.22;;;25.20;97.90;;;;;;7393310;19;20138;-88
2023/09/20 11:49:24;;;;;;;0.30;0.30;;;25.30;96.90;;;;;;7399198;19;20471;-86
2023/09/20 11:51:50;;;;;;;0.17;0.17;;;25.20;97.30;;;;;;7398020;19;20146;-86
2023/09/20 11:54:16;;;;;;;0.30;0.30;;;25.20;98.10;;;;;;7398660;19;20884;-86
2023/09/20 11:56:47;;;;;;;0.30;0.30;;;25.20;99.10;;;;;;7398657;19;20167;-87
2023/09/20 11:59:14;;;;;;;0.10;0.10;;;25.20;99.30;;;;;;7399219;19;20130;-88
2023/09/20 12:01:48;;;;;;;0.40;0.35;;;25.20;99.30;;;;;;7396774;19;20165;-86
2023/09/20 12:04:16;;;;;;;0.30;0.30;;;25.30;98.90;;;;;;7394314;19;20146;-84
2023/09/20 12:06:42;;;;;;;0.40;0.20;;;25.40;98.50;;;;;;7397802;19;20165;-84
2023/09/20 12:09:09;;;;;;;0.10;0.10;;;25.40;98.80;;;;;;7397839;19;20135;-88
2023/09/20 12:11:38;;;;;;;0.15;0.15;;;25.40;98.70;;;;;;7398888;19;20146;-87
2023/09/20 12:14:04;;;;;;;0.50;0.50;;;25.40;98.60;;;;;;7397351;19;20238;-87
2023/09/20 12:16:30;;;;;;;0.22;0.13;;;25.50;98.40;;;;;;7397312;19;20158;-85
2023/09/20 12:18:58;;;;;;;0.20;0.20;;;25.60;98.80;;;;;;7399480;19;20138;-83
2023/09/20 12:21:25;;;;;;;0.45;0.30;;;25.60;99.20;;;;;;7397648;19;20147;-84
2023/09/20 12:23:51;;;;;;;0.20;0.20;;;25.70;99.40;;;;;;7397401;19;20198;-84
2023/09/20 12:26:17;;;;;;;0.10;0.10;;;25.80;99.50;;;;;;7395488;19;20494;-86
2023/09/20 12:28:44;;;;;;;0.10;0.10;;;25.90;99.00;;;;;;7396756;19;20142;-88
2023/09/20 12:31:10;;;;;;;0.30;0.30;;;25.90;98.30;;;;;;7398472;19;20571;-87
2023/09/20 12:33:37;;;;;;;0.20;0.20;;;25.90;98.60;;;;;;7397710;19;20142;-87
2023/09/20 12:36:04;;;;;;;0.10;0.10;;;25.90;98.80;;;;;;7398318;19;20224;-87
2023/09/20 12:38:30;;;;;;;0.17;0.17;;;25.90;98.30;;;;;;7398993;19;20146;-86
2023/09/20 12:40:56;;;;;;;0.17;0.17;;;25.80;98.20;;;;;;7396980;19;20163;-85
2023/09/20 12:43:22;;;;;;;0.10;0.10;;;25.80;98.70;;;;;;7395415;19;20186;-85
2023/09/20 12:45:50;;;;;;;0.10;0.10;;;25.80;98.20;;;;;;7397634;19;20146;-85
2023/09/20 12:48:16;;;;;;;0.10;0.10;;;25.70;97.70;;;;;;7398844;19;20142;-87
2023/09/20 12:50:42;;;;;;;0.20;0.20;;;25.70;97.70;;;;;;7397843;19;20134;-87
2023/09/20 12:53:09;;;;;;;0.00;0.00;;;25.80;98.00;;;;;;7398709;19;20594;-87
2023/09/20 12:55:37;;;;;;;0.10;0.10;;;25.90;98.40;;;;;;7397582;19;20127;-89
2023/09/20 12:58:07;;;;;;;0.20;0.20;;;26.00;98.00;;;;;;7397417;19;20141;-87
2023/09/20 13:00:34;;;;;;;0.15;0.15;;;26.00;97.60;;;;;;7396324;19;20143;-87
2023/09/20 13:03:00;;;;;;;0.20;0.20;;;26.00;97.40;;;;;;7397068;19;20148;-88
2023/09/20 13:05:27;;;;;;;0.00;0.00;;;26.00;96.80;;;;;;7396582;19;20150;-88
2023/09/20 13:07:56;;;;;;;0.20;0.20;;;26.10;97.20;;;;;;7397048;19;20165;-88
2023/09/20 13:10:22;;;;;;;0.10;0.10;;;26.10;97.00;;;;;;7396853;19;20141;-87
2023/09/20 13:12:48;;;;;;;0.30;0.30;;;26.00;96.30;;;;;;7399118;19;20135;-87
2023/09/20 13:15:14;;;;;;;0.10;0.10;;;26.00;97.20;;;;;;7397720;19;20150;-88
2023/09/20 13:17:44;;;;;;;0.10;0.10;;;26.10;97.00;;;;;;7396642;19;20156;-86
2023/09/20 13:20:15;;;;;;;0.15;0.15;;;26.10;96.30;;;;;;7396613;19;20145;-87
2023/09/20 13:22:52;;;;;;;0.10;0.10;;;25.90;94.90;;;;;;7396074;19;20158;-84
2023/09/20 13:25:22;;;;;;;0.10;0.10;;;26.00;95.60;;;;;;7397551;19;20138;-87
2023/09/20 13:27:49;;;;;;;0.10;0.10;;;26.10;94.40;;;;;;7395485;19;20214;-87
2023/09/20 13:30:17;;;;;;;0.10;0.10;;;26.30;94.70;;;;;;7395570;19;20146;-87
2023/09/20 13:32:46;;;;;;;0.20;0.20;;;26.40;94.40;;;;;;7395305;19;20143;-88
2023/09/20 13:35:15;;;;;;;0.10;0.10;;;26.30;94.40;;;;;;7398267;19;20523;-85